To NAV CANADA Home Page Login to a new session Search on AWWS site Feedback and Comments Disclaimer Vers la page française équivalente Tips FAQ What's new on the site To the Forecasts and Observations / NOTAM section To "File a Flight Plan" website Publications and other links Update of the User's profile FIC Telephone Numbers My Weather Data Folder Route Weather Data Regional Weather Data Local Weather Data To the Forecasts and Observations / NOTAM section
Request Generated 09/04/2015 at 07:44:23 UTC . Weather information available at that time is displayed.

METAR/TAF

BRANDON/BRANDON MUNICIPALITY/MB    

METAR CYBR 040700Z 05019KT 15SM OVC006 22/21 A2975 RMK ST8 SLP073
DENSITY ALT 2600FT=
SPECI CYBR 040613Z 06015KT 15SM BKN006 OVC250 22/21 A2974 RMK ST6CI2
SLP070 DENSITY ALT 2600FT=
METAR CYBR 040600Z 05012G17KT 15SM FEW160 SCT250 22/21 A2973 RMK
AC1CI3 SLP067 DENSITY ALT 2600FT=
METAR CYBR 040500Z 05007KT 15SM FEW160 BKN250 22/20 A2972 RMK AC2CI3
SLP064 DENSITY ALT 2600FT=

TAF AMD CYBR 040627Z 0406/0418 06015KT P6SM BKN006 OVC025 TEMPO
0406/0410 SCT006 OVC250
FM041000 06012KT P6SM OVC008 TEMPO 0410/0415 2SM BR BKN004 OVC008
FM041500 05015G25KT P6SM BKN012
RMK NXT FCST BY 041200Z=
Your time UTC time
Weather data provided by Environment Canada and NAV CANADA